Coffman Cove, Alaska
Current Conditions -  °F | °C
As of 1:53 AM on Tuesday 21 Oct 2014 (Local Time) from PAKW Reporting Station
Broken Clouds Broken Clouds  
Wind Chill: 43°   Ceiling: 5000
Heat Index: 45°   Visibility: 10mi
Dew Point: 43°   Wind: 5mph
Humidity: 93%   Direction: 360°N
Pressure: 29.32"   Gusts: NA
Location:  56.01°N, 132.83°W
Report Text: PAKW 210953Z AUTO 36004KT 10SM SCT045 BKN050 07/06 A2932 RMK AO2 SLP928 T00720061 TSNO
Loading
Personal Weather Stations






























Interactive Weather Map
Tropical Storm Tracking
New forecast layout! Learn more

10-Day Weather Forecast

Advertisements
Track Severe Weather on mobile